createdAt,value
2019-03-23T08:34:44.014Z,99432.97
2019-03-23T08:37:17.997Z,99426.08
2019-03-23T08:39:51.089Z,99420.11
2019-03-23T08:42:23.867Z,99415.72
2019-03-23T08:44:56.785Z,99420.67
2019-03-23T08:47:29.563Z,99421.41
2019-03-23T08:50:02.390Z,99413.56
2019-03-23T08:52:35.208Z,99419.48
2019-03-23T08:55:08.111Z,99417.23
2019-03-23T08:57:41.593Z,99410.75
2019-03-23T09:00:14.584Z,99402.37
2019-03-23T09:02:47.403Z,99395.44
2019-03-23T09:05:20.188Z,99398.34
2019-03-23T09:07:53.004Z,99397.86
2019-03-23T09:10:25.907Z,99395.78
2019-03-23T09:12:58.715Z,99393.28
2019-03-23T09:15:31.996Z,99390.84
2019-03-23T09:18:04.811Z,99384.30
2019-03-23T09:20:37.563Z,99381.00
2019-03-23T09:23:10.329Z,99376.03
2019-03-23T09:25:45.513Z,99373.43
2019-03-23T09:28:17.671Z,99369.50
2019-03-23T09:30:50.722Z,99357.02
2019-03-23T09:33:23.482Z,99346.77
2019-03-23T09:35:56.275Z,99350.93
2019-03-23T09:38:29.188Z,99349.78
2019-03-23T09:41:01.972Z,99343.59
2019-03-23T09:43:34.765Z,99344.11
2019-03-23T09:46:07.558Z,99346.06
2019-03-23T09:48:40.351Z,99340.14
2019-03-23T09:51:13.178Z,99333.90
2019-03-23T09:53:46.002Z,99334.66
2019-03-23T09:56:18.736Z,99328.31
2019-03-23T09:58:51.867Z,99326.98
2019-03-23T10:01:24.703Z,99321.27
2019-03-23T10:03:57.482Z,99324.44
2019-03-23T10:06:30.343Z,99314.23
2019-03-23T10:09:03.996Z,99315.13
2019-03-23T10:11:36.853Z,99307.35
2019-03-23T10:14:09.666Z,99303.70
2019-03-23T10:16:43.458Z,99286.16
2019-03-23T10:19:16.300Z,99279.22
2019-03-23T10:21:49.094Z,99272.69
2019-03-23T10:24:21.861Z,99267.27
2019-03-23T10:26:54.688Z,99247.53
2019-03-23T10:29:27.520Z,99237.35
2019-03-23T10:32:00.740Z,99237.99
2019-03-23T10:34:33.534Z,99244.10
2019-03-23T10:37:06.361Z,99224.58
2019-03-23T10:39:39.151Z,99217.84
2019-03-23T10:42:11.980Z,99212.25
2019-03-23T10:44:44.766Z,99209.15
2019-03-23T10:47:17.561Z,99210.23
2019-03-23T10:49:50.939Z,99199.64
2019-03-23T10:52:23.804Z,99207.23
2019-03-23T10:54:56.602Z,99204.50
2019-03-23T10:57:29.453Z,99202.25
2019-03-23T11:00:02.473Z,99200.84
2019-03-23T11:02:35.308Z,99197.49
2019-03-23T11:05:08.772Z,99193.61
2019-03-23T11:07:42.062Z,99197.95
2019-03-23T11:10:15.265Z,99194.34
2019-03-23T11:12:48.006Z,99194.86
2019-03-23T11:15:21.057Z,99189.00
2019-03-23T11:17:53.800Z,99190.47
2019-03-23T11:20:26.503Z,99184.73
2019-03-23T11:22:59.266Z,99180.82
2019-03-23T11:25:31.988Z,99174.48
2019-03-23T11:28:04.758Z,99173.73
2019-03-23T11:30:37.550Z,99171.23
2019-03-23T11:33:10.415Z,99167.12
2019-03-23T11:35:43.198Z,99168.52
2019-03-23T11:38:15.930Z,99163.45
2019-03-23T11:40:54.040Z,99157.33
2019-03-23T11:43:23.179Z,99159.57
2019-03-23T11:45:56.024Z,99158.94
2019-03-23T11:48:28.813Z,99148.86
2019-03-23T11:51:01.600Z,99143.77
2019-03-23T11:53:34.366Z,99142.47
2019-03-23T11:56:07.150Z,99152.34
2019-03-23T11:58:39.948Z,99146.92
2019-03-23T12:01:12.732Z,99141.94
2019-03-23T12:03:45.536Z,99157.44
2019-03-23T12:06:18.320Z,99156.73
2019-03-23T12:08:51.508Z,99163.23
2019-03-23T12:11:24.403Z,99162.68
2019-03-23T12:13:57.203Z,99167.39
2019-03-23T12:16:30.033Z,99166.25
2019-03-23T12:19:02.851Z,99163.73
2019-03-23T12:21:35.714Z,99160.09
2019-03-23T12:24:08.538Z,99165.39
2019-03-23T12:26:41.298Z,99164.73
2019-03-23T12:29:14.077Z,99157.95
2019-03-23T12:31:46.821Z,99160.72
2019-03-23T12:34:19.719Z,99150.00
2019-03-23T12:36:52.590Z,99150.08
2019-03-23T12:39:25.395Z,99152.03
2019-03-23T12:41:58.208Z,99145.64
2019-03-23T12:44:31.473Z,99151.90
2019-03-23T12:47:04.234Z,99146.67
2019-03-23T12:49:37.006Z,99153.02
2019-03-23T12:52:09.802Z,99148.16
2019-03-23T12:54:42.561Z,99144.94
2019-03-23T12:57:15.365Z,99141.41
2019-03-23T12:59:48.159Z,99146.10
2019-03-23T13:02:21.366Z,99135.57
2019-03-23T13:04:54.203Z,99136.28
2019-03-23T13:07:26.964Z,99123.73
2019-03-23T13:09:59.775Z,99124.73
2019-03-23T13:12:32.575Z,99129.77
2019-03-23T13:15:06.337Z,99125.38
2019-03-23T13:17:39.076Z,99131.41
2019-03-23T13:20:12.494Z,99125.37
2019-03-23T13:22:45.358Z,99114.53
2019-03-23T13:25:18.242Z,99114.41
2019-03-23T13:27:51.100Z,99113.72
2019-03-23T13:30:23.906Z,99120.50
2019-03-23T13:32:56.781Z,99111.92
2019-03-23T13:35:29.541Z,99107.59
2019-03-23T13:38:02.325Z,99098.44
2019-03-23T13:40:35.099Z,99106.72
2019-03-23T13:43:07.875Z,99099.81
2019-03-23T13:45:42.769Z,99097.12
2019-03-23T13:48:15.841Z,99094.17
2019-03-23T13:50:48.635Z,99088.61
2019-03-23T13:53:21.456Z,99084.44
2019-03-23T13:55:54.241Z,99080.97
2019-03-23T13:58:26.994Z,99076.54
2019-03-23T14:00:59.861Z,99081.08
2019-03-23T14:03:32.667Z,99076.86
2019-03-23T14:06:05.551Z,99075.98
2019-03-23T14:08:38.315Z,99083.59
2019-03-23T14:11:11.619Z,99070.61
2019-03-23T14:13:44.408Z,99073.59
2019-03-23T14:16:17.201Z,99068.59
2019-03-23T14:18:49.999Z,99064.84
2019-03-23T14:21:22.791Z,99061.92
2019-03-23T14:23:55.740Z,99052.83
2019-03-23T14:26:28.518Z,99056.23
2019-03-23T14:29:01.269Z,99056.21
2019-03-23T14:31:34.135Z,99046.96
2019-03-23T14:34:06.909Z,99048.19
2019-03-23T14:36:39.691Z,99048.61
2019-03-23T14:39:12.495Z,99041.81
2019-03-23T14:41:45.319Z,99040.24
2019-03-23T14:44:18.107Z,99040.95
2019-03-23T14:46:51.267Z,99041.77
2019-03-23T14:49:24.081Z,99038.86
2019-03-23T14:51:56.864Z,99045.30
2019-03-23T14:54:29.733Z,99040.83
2019-03-23T14:57:02.552Z,99040.75
2019-03-23T14:59:35.340Z,99034.11
2019-03-23T15:02:08.171Z,99036.72
2019-03-23T15:04:41.369Z,99035.75
2019-03-23T15:07:14.153Z,99038.78
2019-03-23T15:09:47.029Z,99042.24
2019-03-23T15:12:19.835Z,99038.11
2019-03-23T15:14:52.623Z,99033.70
2019-03-23T15:17:25.441Z,99038.06
2019-03-23T15:19:58.255Z,99036.25
2019-03-23T15:22:31.096Z,99026.25
2019-03-23T15:25:03.875Z,99034.45
2019-03-23T15:27:36.711Z,99031.67
2019-03-23T15:30:10.196Z,99028.49
2019-03-23T15:32:42.995Z,99027.02
2019-03-23T15:35:15.901Z,99025.94
2019-03-23T15:37:48.721Z,99028.24
2019-03-23T15:40:21.916Z,99017.97
2019-03-23T15:42:54.738Z,99025.92
2019-03-23T15:45:27.487Z,99017.78
2019-03-23T15:48:00.350Z,99017.59
2019-03-23T15:50:33.123Z,99013.46
2019-03-23T15:53:05.907Z,99007.54
2019-03-23T15:55:38.696Z,99004.69
2019-03-23T15:58:11.432Z,99009.11
2019-03-23T16:00:44.224Z,99002.70
2019-03-23T16:03:17.059Z,99001.19
2019-03-23T16:05:49.844Z,99008.27
2019-03-23T16:08:22.764Z,99005.41
2019-03-23T16:10:55.493Z,99000.23
2019-03-23T16:13:28.466Z,99009.44
2019-03-23T16:16:01.636Z,99002.55
2019-03-23T16:18:34.527Z,99005.39
2019-03-23T16:21:07.497Z,99003.86
2019-03-23T16:23:40.363Z,99001.91
2019-03-23T16:26:13.162Z,99000.64
2019-03-23T16:28:45.959Z,99005.69
2019-03-23T16:31:18.791Z,99000.68
2019-03-23T16:33:51.612Z,98998.83
2019-03-23T16:36:24.414Z,98994.75
2019-03-23T16:38:57.583Z,99002.61
2019-03-23T16:41:30.529Z,99004.66
2019-03-23T16:44:03.343Z,99001.50
2019-03-23T16:46:36.140Z,99005.63
2019-03-23T16:49:08.919Z,99003.64
2019-03-23T16:51:42.097Z,99007.38
2019-03-23T16:54:14.856Z,99010.82
2019-03-23T16:56:47.633Z,99009.75
2019-03-23T16:59:20.411Z,99014.02
2019-03-23T17:01:53.180Z,99014.28
2019-03-23T17:04:25.992Z,99017.99
2019-03-23T17:06:58.768Z,99015.39
2019-03-23T17:09:31.934Z,99023.05
2019-03-23T17:12:04.686Z,99022.12
2019-03-23T17:14:37.475Z,99015.85
2019-03-23T17:17:10.319Z,99019.45
2019-03-23T17:19:43.108Z,99021.55
2019-03-23T17:22:15.883Z,99015.80
2019-03-23T17:24:48.715Z,99018.45
2019-03-23T17:27:21.856Z,99018.84
2019-03-23T17:29:54.688Z,99015.22
2019-03-23T17:32:27.552Z,99017.70
2019-03-23T17:35:00.492Z,99018.85
2019-03-23T17:37:33.286Z,99016.03
2019-03-23T17:40:06.185Z,99010.83
2019-03-23T17:42:39.058Z,99008.97
2019-03-23T17:45:12.802Z,99011.31
2019-03-23T17:47:45.642Z,99011.13
2019-03-23T17:50:18.415Z,99014.56
2019-03-23T17:52:51.517Z,99019.45
2019-03-23T17:55:24.297Z,99021.48
2019-03-23T17:57:57.097Z,99023.74
2019-03-23T18:00:30.545Z,99021.28
2019-03-23T18:03:03.553Z,99019.79
2019-03-23T18:05:36.350Z,99028.79
2019-03-23T18:08:09.234Z,99030.85
2019-03-23T18:10:42.063Z,99029.80
2019-03-23T18:13:16.705Z,99029.28
2019-03-23T18:15:49.404Z,99027.38
2019-03-23T18:18:22.165Z,99026.72
2019-03-23T18:20:55.041Z,99030.06
2019-03-23T18:23:27.794Z,99030.25
2019-03-23T18:26:00.964Z,99031.78
2019-03-23T18:28:33.741Z,99035.12
2019-03-23T18:31:06.541Z,99036.80
2019-03-23T18:33:39.342Z,99037.10
2019-03-23T18:36:12.150Z,99046.68
2019-03-23T18:38:44.964Z,99047.94
2019-03-23T18:41:17.740Z,99053.52
2019-03-23T18:43:50.521Z,99047.13
2019-03-23T18:46:24.556Z,99047.64
2019-03-23T18:48:57.655Z,99052.22
2019-03-23T18:51:30.471Z,99047.05
2019-03-23T18:54:03.268Z,99050.78
2019-03-23T18:56:36.070Z,99051.00
2019-03-23T18:59:08.921Z,99056.94
2019-03-23T19:01:41.738Z,99055.34
2019-03-23T19:04:14.541Z,99059.11
2019-03-23T19:06:47.361Z,99063.41
2019-03-23T19:09:20.163Z,99057.86
2019-03-23T19:11:52.917Z,99061.23
2019-03-23T19:14:25.746Z,99067.71
2019-03-23T19:16:58.562Z,99065.36
2019-03-23T19:19:31.354Z,99057.63
2019-03-23T19:22:04.286Z,99067.92
2019-03-23T19:24:37.061Z,99064.58
2019-03-23T19:27:09.942Z,99061.55
2019-03-23T19:29:42.802Z,99064.67
2019-03-23T19:32:15.582Z,99060.62
2019-03-23T19:34:48.398Z,99059.77
2019-03-23T19:37:21.209Z,99059.88
2019-03-23T19:39:54.013Z,99061.44
2019-03-23T19:42:26.796Z,99063.58
2019-03-23T19:44:59.659Z,99055.75
2019-03-23T19:47:32.527Z,99053.02
2019-03-23T19:50:05.897Z,99055.69
2019-03-23T19:52:38.707Z,99057.24
2019-03-23T19:55:12.957Z,99057.47
2019-03-23T19:57:45.755Z,99055.48
2019-03-23T20:00:18.771Z,99057.59
2019-03-23T20:02:51.587Z,99051.11
2019-03-23T20:05:24.408Z,99053.98
2019-03-23T20:07:57.255Z,99062.95
2019-03-23T20:10:30.030Z,99061.35
2019-03-23T20:13:02.866Z,99059.39
2019-03-23T20:15:35.667Z,99061.73
2019-03-23T20:18:08.846Z,99059.16
2019-03-23T20:20:41.993Z,99060.59
2019-03-23T20:23:14.797Z,99053.31
2019-03-23T20:25:47.520Z,99056.47
2019-03-23T20:28:20.270Z,99054.38
2019-03-23T20:30:53.130Z,99053.18
2019-03-23T20:33:25.923Z,99046.70
2019-03-23T20:35:58.747Z,99042.31
2019-03-23T20:38:31.635Z,99045.47
2019-03-23T20:41:04.525Z,99040.22
2019-03-23T20:43:37.376Z,99043.00
2019-03-23T20:46:12.998Z,99039.58
2019-03-23T20:48:46.683Z,99045.45
2019-03-23T20:51:19.517Z,99042.03
2019-03-23T20:53:52.427Z,99034.64
2019-03-23T20:56:25.236Z,99038.70
2019-03-23T20:58:58.102Z,99037.50
2019-03-23T21:01:30.936Z,99038.91
2019-03-23T21:04:03.747Z,99037.23
2019-03-23T21:06:36.550Z,99034.28
2019-03-23T21:09:09.942Z,99032.61
2019-03-23T21:11:42.738Z,99033.16
2019-03-23T21:14:20.188Z,99031.98
2019-03-23T21:16:50.146Z,99031.57
2019-03-23T21:19:22.989Z,99034.34
2019-03-23T21:21:55.865Z,99027.38
2019-03-23T21:24:28.745Z,99031.89
2019-03-23T21:27:03.990Z,99025.77
2019-03-23T21:29:36.780Z,99031.61
2019-03-23T21:32:09.589Z,99030.43
2019-03-23T21:34:42.429Z,99028.31
2019-03-23T21:37:15.247Z,99027.48
2019-03-23T21:39:48.082Z,99024.53
2019-03-23T21:42:21.135Z,99027.67
2019-03-23T21:44:53.919Z,99026.48
2019-03-23T21:47:26.766Z,99022.57
2019-03-23T21:49:59.668Z,99027.59
2019-03-23T21:52:32.523Z,99029.20
2019-03-23T21:55:05.811Z,99028.55
2019-03-23T21:57:38.603Z,99031.07
2019-03-23T22:00:12.548Z,99024.95
2019-03-23T22:02:45.307Z,99027.95
2019-03-23T22:05:18.123Z,99028.23
2019-03-23T22:07:51.291Z,99020.39
2019-03-23T22:10:24.051Z,99026.69
2019-03-23T22:12:56.846Z,99021.63
2019-03-23T22:15:34.267Z,99028.86
2019-03-23T22:18:08.583Z,99024.96
2019-03-23T22:20:41.378Z,99027.72
2019-03-23T22:23:14.178Z,99017.68
2019-03-23T22:25:46.961Z,99021.29
2019-03-23T22:28:19.767Z,99021.37
2019-03-23T22:30:52.599Z,99019.19
2019-03-23T22:33:25.453Z,99011.33
2019-03-23T22:35:58.238Z,99017.58
2019-03-23T22:38:31.288Z,99011.45
2019-03-23T22:41:04.108Z,99011.56
2019-03-23T22:43:36.901Z,99006.77
2019-03-23T22:46:09.724Z,99006.42
2019-03-23T22:48:42.537Z,99012.73
2019-03-23T22:51:16.372Z,99011.89
2019-03-23T22:53:49.154Z,99015.94
2019-03-23T22:56:21.994Z,99013.81
2019-03-23T22:58:54.788Z,99010.34
2019-03-23T23:01:27.575Z,99009.61
2019-03-23T23:04:00.741Z,99010.59
2019-03-23T23:06:33.549Z,99007.14
2019-03-23T23:09:09.109Z,99005.47
2019-03-23T23:11:41.973Z,99010.39
2019-03-23T23:14:14.905Z,99007.92
2019-03-23T23:16:47.737Z,99013.31
2019-03-23T23:19:20.527Z,99011.26
2019-03-23T23:21:53.695Z,99013.92
2019-03-23T23:24:26.491Z,99031.63
2019-03-23T23:26:59.294Z,99035.08
2019-03-23T23:29:32.067Z,99032.63
2019-03-23T23:32:04.883Z,99030.53
2019-03-23T23:34:37.648Z,99028.78
2019-03-23T23:37:11.139Z,99029.41
2019-03-23T23:39:43.919Z,99030.40
2019-03-23T23:42:17.326Z,99036.75
2019-03-23T23:44:50.358Z,99033.44
2019-03-23T23:47:23.252Z,99030.59
2019-03-23T23:49:56.183Z,99028.33
2019-03-23T23:52:28.967Z,99033.00
2019-03-23T23:55:01.748Z,99035.70
2019-03-23T23:57:34.603Z,99034.64
